Time;durP1;ratioP1;P1;durP2;ratioP2;P2;SDS_P1;SDS_P2;PMS_P1;PMS_P2;Temp;Humidity;BMP_temperature;BMP_pressure;BME280_temperature;BME280_humidity;BME280_pressure;Samples;Min_cycle;Max_cycle;Signal;HPM_P1;HPM_P2
2022/08/20 00:01:44;;;;;;;3.25;1.70;;;22.30;96.20;;;;;;5075749;28;20025;-78
2022/08/20 00:04:10;;;;;;;2.65;1.58;;;22.20;96.40;;;;;;5058059;28;20082;-78
2022/08/20 00:06:36;;;;;;;2.80;0.95;;;22.20;96.60;;;;;;5066220;28;20016;-78
2022/08/20 00:09:02;;;;;;;1.45;0.85;;;22.10;96.80;;;;;;5078461;28;20035;-77
2022/08/20 00:11:28;;;;;;;2.13;0.80;;;22.10;97.10;;;;;;5078118;28;20837;-79
2022/08/20 00:14:01;;;;;;;2.63;0.63;;;22.00;97.30;;;;;;5078583;28;20040;-79
2022/08/20 00:16:31;;;;;;;1.98;0.60;;;22.00;97.50;;;;;;5096214;28;20484;-78
2022/08/20 00:19:02;;;;;;;0.93;0.65;;;22.00;97.70;;;;;;5078749;28;20028;-78
2022/08/20 00:21:28;;;;;;;0.63;0.60;;;21.90;97.80;;;;;;5078243;28;20023;-79
2022/08/20 00:23:55;;;;;;;1.33;0.55;;;21.90;98.00;;;;;;5078593;28;20466;-79
2022/08/20 00:26:21;;;;;;;0.57;0.52;;;21.90;98.10;;;;;;5077921;28;20024;-80
2022/08/20 00:28:47;;;;;;;0.60;0.60;;;21.90;98.60;;;;;;5096332;28;20024;-79
2022/08/20 00:31:18;;;;;;;0.55;0.55;;;21.80;98.50;;;;;;5078073;28;20035;-81
2022/08/20 00:33:44;;;;;;;1.30;0.90;;;21.80;98.60;;;;;;5096326;28;20105;-79
2022/08/20 00:36:11;;;;;;;3.28;1.90;;;21.80;98.80;;;;;;5089793;28;20112;-80
2022/08/20 00:38:41;;;;;;;3.53;1.25;;;21.80;98.90;;;;;;5074335;28;20024;-79
2022/08/20 00:41:13;;;;;;;1.98;0.75;;;21.80;99.10;;;;;;5057461;28;20055;-80
2022/08/20 00:43:47;;;;;;;;;;;21.70;99.10;;;;;;5057663;28;20044;-79
2022/08/20 00:46:18;;;;;;;0.95;0.85;;;21.70;99.40;;;;;;5058239;28;19999;-82
2022/08/20 00:48:47;;;;;;;1.65;0.70;;;21.70;99.40;;;;;;5058133;28;20028;-80
2022/08/20 00:51:27;;;;;;;2.15;1.33;;;21.70;99.40;;;;;;5057914;28;20123;-82
2022/08/20 00:54:01;;;;;;;1.33;0.80;;;21.70;99.70;;;;;;5058213;28;20124;-80
2022/08/20 00:56:27;;;;;;;1.90;0.75;;;21.70;99.70;;;;;;5057780;28;20038;-80
2022/08/20 00:58:53;;;;;;;0.60;0.60;;;21.70;99.70;;;;;;5057627;28;20111;-80
2022/08/20 01:01:21;;;;;;;1.55;1.00;;;21.70;99.80;;;;;;5057186;28;20473;-80
2022/08/20 01:03:47;;;;;;;2.38;0.75;;;21.70;99.80;;;;;;5057919;28;20029;-80
2022/08/20 01:06:13;;;;;;;2.55;0.80;;;21.70;99.90;;;;;;5057390;28;20077;-81
2022/08/20 01:08:39;;;;;;;1.30;0.70;;;21.70;99.90;;;;;;5057654;28;20028;-80
2022/08/20 01:11:17;;;;;;;0.77;0.73;;;21.70;99.90;;;;;;5058018;28;20060;-79
2022/08/20 01:13:45;;;;;;;0.95;0.80;;;21.70;99.90;;;;;;5057620;28;20055;-79
2022/08/20 01:16:20;;;;;;;1.70;0.93;;;21.70;99.90;;;;;;5057457;28;20024;-79
2022/08/20 01:18:48;;;;;;;1.45;0.90;;;21.70;99.90;;;;;;5075298;28;20029;-79
2022/08/20 01:21:18;;;;;;;1.52;0.90;;;21.70;99.90;;;;;;5074776;28;20027;-82
2022/08/20 01:23:59;;;;;;;2.05;1.10;;;21.70;99.90;;;;;;5075075;28;20021;-79
2022/08/20 01:26:31;;;;;;;1.33;0.90;;;21.70;99.90;;;;;;5057122;28;20024;-79
2022/08/20 01:29:06;;;;;;;1.20;0.82;;;21.70;99.90;;;;;;5057466;28;20032;-79
2022/08/20 01:31:35;;;;;;;2.33;1.00;;;21.70;99.90;;;;;;5056925;28;20255;-79
2022/08/20 01:34:02;;;;;;;1.73;1.23;;;21.70;99.90;;;;;;5057396;28;20484;-80
2022/08/20 01:36:58;;;;;;;1.40;0.98;;;21.70;99.90;;;;;;5056549;28;20115;-80
2022/08/20 01:39:34;;;;;;;0.90;0.77;;;21.70;99.90;;;;;;5074221;28;20024;-80
2022/08/20 01:42:29;;;;;;;2.55;1.10;;;21.70;99.90;;;;;;5056647;28;20048;-80
2022/08/20 01:44:54;;;;;;;1.15;1.00;;;21.70;99.90;;;;;;5057031;28;20374;-79
2022/08/20 01:47:24;;;;;;;1.90;0.80;;;21.70;99.90;;;;;;5056511;28;20025;-80
2022/08/20 01:49:58;;;;;;;4.32;1.00;;;21.80;99.90;;;;;;5057016;28;20047;-79
2022/08/20 01:52:56;;;;;;;2.22;1.00;;;21.70;99.90;;;;;;5056241;28;20040;-80
2022/08/20 01:55:22;;;;;;;1.92;0.93;;;21.70;99.90;;;;;;5051748;28;20037;-79
2022/08/20 01:57:48;;;;;;;0.90;0.90;;;21.70;99.90;;;;;;5056608;28;20028;-80
2022/08/20 02:00:16;;;;;;;2.33;1.10;;;21.70;99.90;;;;;;5056541;28;20035;-82
2022/08/20 02:02:42;;;;;;;1.73;0.82;;;21.70;99.90;;;;;;5056223;28;20034;-79
2022/08/20 02:05:08;;;;;;;1.10;0.82;;;21.70;99.90;;;;;;5056331;28;20112;-79
2022/08/20 02:07:34;;;;;;;2.25;1.02;;;21.80;99.90;;;;;;5055835;28;20074;-80
2022/08/20 02:10:00;;;;;;;2.92;1.10;;;21.70;99.90;;;;;;5074114;28;20036;-79
2022/08/20 02:12:26;;;;;;;0.90;0.80;;;21.70;99.90;;;;;;5055602;28;20033;-79
2022/08/20 02:14:53;;;;;;;1.65;1.25;;;21.70;99.90;;;;;;5073964;28;20025;-79
2022/08/20 02:17:22;;;;;;;2.35;1.10;;;21.70;99.90;;;;;;5055768;28;20119;-81
2022/08/20 02:20:00;;;;;;;1.63;1.02;;;21.80;99.90;;;;;;5056316;28;20063;-79
2022/08/20 02:22:32;;;;;;;1.45;1.00;;;21.80;99.90;;;;;;5073647;28;20036;-79
2022/08/20 02:24:58;;;;;;;1.88;1.10;;;21.80;99.90;;;;;;5056522;28;20024;-78
2022/08/20 02:27:24;;;;;;;1.52;1.10;;;21.80;99.90;;;;;;5073418;28;20082;-78
2022/08/20 02:29:50;;;;;;;10.10;4.32;;;21.80;99.90;;;;;;5074105;28;20024;-79
2022/08/20 02:32:16;;;;;;;7.47;3.78;;;21.80;99.90;;;;;;5056172;28;20032;-80
2022/08/20 02:34:42;;;;;;;3.13;2.30;;;21.80;99.90;;;;;;5056148;28;20074;-79
2022/08/20 02:37:09;;;;;;;6.70;2.80;;;21.80;99.90;;;;;;5056035;28;20024;-79
2022/08/20 02:39:34;;;;;;;3.95;1.88;;;21.80;99.90;;;;;;5055138;28;20549;-80
2022/08/20 02:42:02;;;;;;;2.85;1.90;;;21.80;99.90;;;;;;5073632;28;20076;-80
2022/08/20 02:44:28;;;;;;;3.13;1.88;;;21.80;99.90;;;;;;5055418;28;20028;-80
2022/08/20 02:46:54;;;;;;;5.18;2.50;;;21.80;99.90;;;;;;5055731;28;20120;-80
2022/08/20 02:49:20;;;;;;;2.65;1.60;;;21.80;99.90;;;;;;5073547;28;20063;-80
2022/08/20 02:51:46;;;;;;;2.33;1.60;;;21.80;99.90;;;;;;5056108;28;20028;-79
2022/08/20 02:54:13;;;;;;;2.55;1.48;;;21.80;99.90;;;;;;5055838;28;20458;-79
2022/08/20 02:56:39;;;;;;;2.60;1.20;;;21.80;99.90;;;;;;5055374;28;20305;-79
2022/08/20 02:59:05;;;;;;;2.70;1.38;;;21.70;99.90;;;;;;5055905;28;20112;-79
2022/08/20 03:01:31;;;;;;;1.83;1.30;;;21.70;99.90;;;;;;5055291;28;20048;-79
2022/08/20 03:03:58;;;;;;;1.50;1.27;;;21.80;99.90;;;;;;5055721;28;20051;-79
2022/08/20 03:06:25;;;;;;;2.25;1.30;;;21.70;99.90;;;;;;5054985;28;20028;-79
2022/08/20 03:08:51;;;;;;;3.10;1.30;;;21.70;99.90;;;;;;5055849;28;20466;-79
2022/08/20 03:11:18;;;;;;;1.38;1.13;;;21.70;99.90;;;;;;5055610;28;20071;-79
2022/08/20 03:13:44;;;;;;;3.08;1.52;;;21.60;99.90;;;;;;5055521;28;20044;-79
2022/08/20 03:16:10;;;;;;;2.13;1.27;;;21.60;99.90;;;;;;5073512;28;20028;-79
2022/08/20 03:18:44;;;;;;;1.90;1.50;;;21.60;99.90;;;;;;5055441;28;20028;-79
2022/08/20 03:21:10;;;;;;;1.50;1.40;;;21.60;99.90;;;;;;5055375;28;20024;-79
2022/08/20 03:23:38;;;;;;;2.55;1.17;;;21.60;99.90;;;;;;5054954;28;20035;-82
2022/08/20 03:26:05;;;;;;;2.85;1.20;;;21.60;99.90;;;;;;5073576;28;20021;-81
2022/08/20 03:28:31;;;;;;;3.92;1.65;;;21.60;99.90;;;;;;5055565;28;20032;-82
2022/08/20 03:30:58;;;;;;;2.20;1.73;;;21.60;99.90;;;;;;5055738;28;20031;-82
2022/08/20 03:33:24;;;;;;;1.83;1.38;;;21.60;99.90;;;;;;5072815;28;20029;-83
2022/08/20 03:35:50;;;;;;;1.67;1.27;;;21.60;99.90;;;;;;5055134;28;20024;-82
2022/08/20 03:38:17;;;;;;;2.25;1.38;;;21.60;99.90;;;;;;5055585;28;20028;-79
2022/08/20 03:40:44;;;;;;;1.73;1.40;;;21.60;99.90;;;;;;5045182;28;20593;-79
2022/08/20 03:43:10;;;;;;;1.90;1.38;;;21.60;99.90;;;;;;5032057;28;20060;-79
2022/08/20 03:45:38;;;;;;;2.83;1.50;;;21.70;99.90;;;;;;5031300;28;20467;-79
2022/08/20 03:48:06;;;;;;;3.22;1.42;;;21.70;99.90;;;;;;5031916;28;20083;-79
2022/08/20 03:50:32;;;;;;;2.53;1.13;;;21.70;99.90;;;;;;5031430;28;20087;-80
2022/08/20 03:52:59;;;;;;;3.50;1.48;;;21.70;99.90;;;;;;5032184;28;20029;-79
2022/08/20 03:55:27;;;;;;;2.72;1.40;;;21.60;99.90;;;;;;5031527;28;20108;-82
2022/08/20 03:57:56;;;;;;;3.13;1.60;;;21.70;99.90;;;;;;5031957;28;20090;-79
2022/08/20 04:00:25;;;;;;;2.17;1.70;;;21.60;99.90;;;;;;5031756;28;20026;-80
2022/08/20 04:02:51;;;;;;;2.72;1.75;;;21.60;99.90;;;;;;5031951;28;20478;-79
2022/08/20 04:05:17;;;;;;;1.30;1.20;;;21.60;99.90;;;;;;5031961;28;20029;-79
2022/08/20 04:07:43;;;;;;;2.45;1.50;;;21.60;99.90;;;;;;5031612;28;20029;-79
2022/08/20 04:10:11;;;;;;;4.25;1.52;;;21.60;99.90;;;;;;5033078;28;20034;-79
2022/08/20 04:12:40;;;;;;;1.60;1.40;;;21.60;99.90;;;;;;5031609;28;20092;-79
2022/08/20 04:15:14;;;;;;;2.47;1.50;;;21.60;99.90;;;;;;5032125;28;20029;-79
2022/08/20 04:17:42;;;;;;;2.92;1.65;;;21.50;99.90;;;;;;5032603;28;20025;-78
2022/08/20 04:20:10;;;;;;;1.88;1.50;;;21.50;99.90;;;;;;5035050;28;20028;-79
2022/08/20 04:22:36;;;;;;;3.72;1.60;;;21.50;99.90;;;;;;5034834;28;20029;-79
2022/08/20 04:25:03;;;;;;;2.63;1.73;;;21.50;99.90;;;;;;5035522;28;20029;-78
2022/08/20 04:27:31;;;;;;;3.03;1.60;;;21.50;99.90;;;;;;5034774;28;20033;-79
2022/08/20 04:29:58;;;;;;;1.92;1.38;;;21.50;99.90;;;;;;5036545;28;20021;-79
2022/08/20 04:32:24;;;;;;;3.33;1.70;;;21.40;99.90;;;;;;5034844;28;20034;-80
2022/08/20 04:34:51;;;;;;;2.30;1.83;;;21.50;99.90;;;;;;5036000;28;20032;-79
2022/08/20 04:37:20;;;;;;;2.40;1.50;;;21.50;99.90;;;;;;5035254;28;20078;-79
2022/08/20 04:40:52;;;;;;;4.30;1.80;;;21.50;99.90;;;;;;5034367;28;20486;-79
2022/08/20 04:42:33;;;;;;;1.55;1.35;;;21.50;99.90;;;;;;5035380;28;20053;-79
2022/08/20 04:44:58;;;;;;;2.00;1.80;;;21.50;99.90;;;;;;5034766;28;20042;-80
2022/08/20 04:47:25;;;;;;;2.40;1.75;;;21.50;99.90;;;;;;5034799;28;20037;-80
2022/08/20 04:49:50;;;;;;;2.53;1.77;;;21.50;99.90;;;;;;5034993;28;20418;-79
2022/08/20 04:52:16;;;;;;;3.58;1.77;;;21.40;99.90;;;;;;5035644;28;20083;-79
2022/08/20 04:54:42;;;;;;;3.78;2.13;;;21.40;99.90;;;;;;5034473;28;20025;-79
2022/08/20 04:57:08;;;;;;;6.82;3.13;;;21.40;99.90;;;;;;5034071;28;20026;-79
2022/08/20 04:59:33;;;;;;;4.22;2.10;;;21.30;99.90;;;;;;5036381;28;20025;-80
2022/08/20 05:02:01;;;;;;;3.70;2.13;;;21.30;99.90;;;;;;5034599;28;20105;-79
2022/08/20 05:04:26;;;;;;;4.35;2.10;;;21.30;99.90;;;;;;5035323;28;20022;-82
2022/08/20 05:06:52;;;;;;;2.78;2.20;;;21.20;99.90;;;;;;5040550;28;20100;-78
2022/08/20 05:09:18;;;;;;;3.45;2.00;;;21.20;99.90;;;;;;5043940;28;20041;-79
2022/08/20 05:11:43;;;;;;;2.83;2.13;;;21.20;99.90;;;;;;5043437;28;20383;-80
2022/08/20 05:14:09;;;;;;;3.85;2.45;;;21.20;99.90;;;;;;5043855;28;20042;-80
2022/08/20 05:16:37;;;;;;;3.05;2.22;;;21.20;99.90;;;;;;5044706;28;20049;-79
2022/08/20 05:19:03;;;;;;;3.50;2.45;;;21.20;99.90;;;;;;5043566;28;20447;-80
2022/08/20 05:21:28;;;;;;;4.00;2.40;;;21.10;99.90;;;;;;5043305;28;20026;-80
2022/08/20 05:23:54;;;;;;;5.60;2.72;;;21.10;99.90;;;;;;5043514;28;20259;-78
2022/08/20 05:26:20;;;;;;;4.18;2.72;;;21.10;99.90;;;;;;5042662;28;20105;-78
2022/08/20 05:28:47;;;;;;;3.17;2.25;;;21.00;99.90;;;;;;5042293;28;20033;-78
2022/08/20 05:31:14;;;;;;;3.17;2.38;;;21.10;99.90;;;;;;5043583;28;20383;-79
2022/08/20 05:33:39;;;;;;;4.03;2.28;;;21.10;99.90;;;;;;5043365;28;20029;-77
2022/08/20 05:36:06;;;;;;;3.75;2.25;;;21.10;99.90;;;;;;5044564;28;20463;-79
2022/08/20 05:38:33;;;;;;;5.10;2.40;;;21.10;99.90;;;;;;5044303;28;20085;-77
2022/08/20 05:40:59;;;;;;;4.20;2.40;;;21.20;99.90;;;;;;5042650;28;20059;-77
2022/08/20 05:43:25;;;;;;;6.28;2.83;;;21.20;99.90;;;;;;5043123;28;20503;-79
2022/08/20 05:45:51;;;;;;;4.22;2.67;;;21.20;99.90;;;;;;5043162;28;20025;-79
2022/08/20 05:48:19;;;;;;;3.55;2.58;;;21.20;99.90;;;;;;5043113;28;20026;-79
2022/08/20 05:50:48;;;;;;;4.72;2.25;;;21.20;99.90;;;;;;5044100;28;20382;-79
2022/08/20 05:53:14;;;;;;;3.33;2.70;;;21.30;99.90;;;;;;5042786;28;20033;-78
2022/08/20 05:55:40;;;;;;;3.53;2.40;;;21.20;99.90;;;;;;5042543;28;20038;-79
2022/08/20 05:58:24;;;;;;;3.55;2.67;;;21.30;99.90;;;;;;5042126;28;20033;-79
2022/08/20 06:00:52;;;;;;;3.78;2.38;;;21.40;99.90;;;;;;5043578;28;20047;-78
2022/08/20 06:06:04;;;;;;;5.15;2.45;;;21.40;99.90;;;;;;5044114;28;20036;-79
2022/08/20 06:08:30;;;;;;;5.53;2.38;;;21.50;99.90;;;;;;5042686;28;20025;-78
2022/08/20 06:10:56;;;;;;;4.70;2.38;;;21.40;99.90;;;;;;5042414;28;20034;-79
2022/08/20 06:13:22;;;;;;;2.67;2.08;;;21.50;99.90;;;;;;5043444;28;20041;-79
2022/08/20 06:15:48;;;;;;;4.03;2.28;;;21.50;99.90;;;;;;5041929;28;20120;-79
2022/08/20 06:18:14;;;;;;;4.40;2.58;;;21.40;99.90;;;;;;5042108;28;20021;-79
2022/08/20 06:20:40;;;;;;;3.63;2.35;;;21.50;99.90;;;;;;5042049;28;20052;-80
2022/08/20 06:23:07;;;;;;;3.95;2.47;;;21.50;99.90;;;;;;5043597;28;20021;-79
2022/08/20 06:25:33;;;;;;;3.60;2.30;;;21.40;99.90;;;;;;5042506;28;20088;-79
2022/08/20 06:27:59;;;;;;;4.72;2.60;;;21.40;99.90;;;;;;5042453;28;20060;-80
2022/08/20 06:30:25;;;;;;;5.50;2.40;;;21.40;99.90;;;;;;5033444;28;20029;-79
2022/08/20 06:32:51;;;;;;;5.38;2.22;;;21.50;99.90;;;;;;5032623;28;20226;-80
2022/08/20 06:35:16;;;;;;;3.92;2.20;;;21.50;99.90;;;;;;5032980;28;20032;-80
2022/08/20 06:37:42;;;;;;;3.50;2.40;;;21.50;99.90;;;;;;5032427;28;20048;-80
2022/08/20 06:40:19;;;;;;;4.07;2.35;;;21.50;99.90;;;;;;5034048;28;20053;-80
2022/08/20 06:42:45;;;;;;;4.80;2.50;;;21.50;99.90;;;;;;5055530;28;20461;-80
2022/08/20 06:45:12;;;;;;;2.85;2.10;;;21.60;99.90;;;;;;5055895;28;20458;-80
2022/08/20 06:47:40;;;;;;;3.45;2.45;;;21.60;99.90;;;;;;5055618;28;20020;-80
2022/08/20 06:50:09;;;;;;;5.03;2.30;;;21.60;99.90;;;;;;5055875;28;20378;-80
2022/08/20 06:52:36;;;;;;;4.82;2.55;;;21.70;99.90;;;;;;5073445;28;20044;-81
2022/08/20 06:55:02;;;;;;;2.83;1.95;;;21.70;99.90;;;;;;5055830;28;20081;-80
2022/08/20 06:57:28;;;;;;;3.15;2.22;;;21.80;99.90;;;;;;5055803;28;20111;-80
2022/08/20 06:59:54;;;;;;;4.55;2.47;;;21.90;99.90;;;;;;5055308;28;20052;-80
2022/08/20 07:02:22;;;;;;;4.45;2.33;;;22.00;99.90;;;;;;5055430;28;20474;-80
2022/08/20 07:04:48;;;;;;;2.50;2.17;;;22.10;99.90;;;;;;5055173;28;20035;-80
2022/08/20 07:07:18;;;;;;;4.28;2.63;;;22.10;99.90;;;;;;5055747;28;20119;-80
2022/08/20 07:09:45;;;;;;;3.67;2.47;;;22.20;99.90;;;;;;5055307;28;20071;-80
2022/08/20 07:12:11;;;;;;;4.38;2.80;;;22.30;99.90;;;;;;5055943;28;20535;-80
2022/08/20 07:14:37;;;;;;;5.70;3.10;;;22.30;99.90;;;;;;5054973;28;20047;-82
2022/08/20 07:17:04;;;;;;;4.22;3.38;;;22.40;99.90;;;;;;5055449;28;20032;-79
2022/08/20 07:19:30;;;;;;;8.80;2.95;;;22.50;99.90;;;;;;5055268;28;20052;-81
2022/08/20 07:21:56;;;;;;;4.95;2.60;;;22.50;99.90;;;;;;5054675;28;20052;-80
2022/08/20 07:24:22;;;;;;;5.30;3.10;;;22.50;99.90;;;;;;5054936;28;20496;-78
2022/08/20 07:26:49;;;;;;;3.55;2.20;;;22.50;99.90;;;;;;5071804;28;20024;-78
2022/08/20 07:29:15;;;;;;;3.72;2.40;;;22.60;99.90;;;;;;5055216;28;20036;-78
2022/08/20 07:34:25;;;;;;;3.40;1.98;;;22.70;99.90;;;;;;5072474;28;20052;-79
2022/08/20 07:36:51;;;;;;;4.20;2.05;;;22.70;99.90;;;;;;5053926;28;20029;-78
2022/08/20 07:39:16;;;;;;;3.05;1.75;;;22.80;99.90;;;;;;5055040;28;20032;-78
2022/08/20 07:41:42;;;;;;;3.05;1.60;;;22.90;99.90;;;;;;5054217;28;20053;-78
2022/08/20 07:44:07;;;;;;;4.80;1.40;;;22.90;99.90;;;;;;5055090;28;20131;-77
2022/08/20 07:46:33;;;;;;;6.00;1.73;;;22.90;99.90;;;;;;5072325;28;20031;-78
2022/08/20 07:48:59;;;;;;;2.28;1.40;;;22.90;99.90;;;;;;5072159;28;20078;-79
2022/08/20 07:51:25;;;;;;;2.35;1.33;;;23.00;99.90;;;;;;5054904;28;20090;-80
2022/08/20 07:53:51;;;;;;;3.63;2.30;;;22.90;99.90;;;;;;5076144;28;20041;-79
2022/08/20 07:56:22;;;;;;;6.30;2.55;;;23.10;99.90;;;;;;5058597;28;20101;-79
2022/08/20 07:58:51;;;;;;;2.80;1.98;;;23.00;99.90;;;;;;5057370;28;20025;-79
2022/08/20 08:01:24;;;;;;;2.53;1.60;;;23.10;99.90;;;;;;5075175;28;20033;-78
2022/08/20 08:03:50;;;;;;;4.22;1.58;;;23.10;99.90;;;;;;5058388;28;20058;-77
2022/08/20 08:06:21;;;;;;;2.15;1.20;;;23.10;99.90;;;;;;5074844;28;20469;-79
2022/08/20 08:08:49;;;;;;;1.85;1.20;;;22.90;99.90;;;;;;5062708;28;20016;-78
2022/08/20 08:11:15;;;;;;;3.15;1.20;;;22.80;99.90;;;;;;5077390;28;20032;-78
2022/08/20 08:13:43;;;;;;;1.70;1.20;;;22.70;99.90;;;;;;5081391;28;20085;-78
2022/08/20 08:16:09;;;;;;;3.63;1.23;;;22.70;99.90;;;;;;5076584;28;20051;-79
2022/08/20 08:18:42;;;;;;;1.15;1.00;;;22.70;99.90;;;;;;5058168;28;20025;-79
2022/08/20 08:21:08;;;;;;;4.82;1.70;;;22.70;99.90;;;;;;5067894;28;20527;-79
2022/08/20 08:23:34;;;;;;;2.65;1.42;;;22.60;99.90;;;;;;5096096;28;20028;-79
2022/08/20 08:26:00;;;;;;;3.05;1.75;;;22.70;99.90;;;;;;5066915;28;20056;-78
2022/08/20 08:28:28;;;;;;;3.00;1.80;;;22.60;99.90;;;;;;5058865;28;20035;-84
2022/08/20 08:30:54;;;;;;;4.85;1.75;;;22.70;99.90;;;;;;5083827;28;20081;-84
2022/08/20 08:33:32;;;;;;;3.47;1.63;;;22.70;99.90;;;;;;5060161;28;20481;-86
2022/08/20 08:36:02;;;;;;;2.78;1.42;;;22.70;99.90;;;;;;5057212;28;20572;-82
2022/08/20 08:38:29;;;;;;;2.45;1.40;;;22.70;99.90;;;;;;5075688;28;20104;-82
2022/08/20 08:40:57;;;;;;;3.92;2.67;;;22.70;99.90;;;;;;5083231;28;20126;-82
2022/08/20 08:43:36;;;;;;;1.63;1.42;;;22.70;99.90;;;;;;5084046;28;20115;-82
2022/08/20 08:46:10;;;;;;;2.05;1.25;;;22.60;99.90;;;;;;5075213;28;20028;-81
2022/08/20 08:48:42;;;;;;;1.55;1.10;;;22.70;99.90;;;;;;5072911;28;20017;-82
2022/08/20 08:51:11;;;;;;;2.67;1.23;;;22.70;99.90;;;;;;5067466;28;20046;-81
2022/08/20 08:53:45;;;;;;;2.75;1.10;;;22.70;99.90;;;;;;5063991;28;20066;-82
2022/08/20 08:56:13;;;;;;;2.80;1.48;;;22.80;99.90;;;;;;5074258;28;20032;-81
2022/08/20 08:58:39;;;;;;;2.38;1.30;;;22.80;99.90;;;;;;5063103;28;20023;-80
2022/08/20 09:01:13;;;;;;;2.15;1.50;;;22.70;99.90;;;;;;5071131;28;20106;-82
2022/08/20 09:03:42;;;;;;;2.25;1.55;;;22.70;99.90;;;;;;5094369;28;20059;-81
2022/08/20 09:06:13;;;;;;;1.10;0.93;;;22.70;99.90;;;;;;5078051;28;20056;-82
2022/08/20 09:08:55;;;;;;;1.95;1.30;;;22.70;99.90;;;;;;5063345;28;20376;-81
2022/08/20 09:11:23;;;;;;;2.70;1.13;;;22.70;99.90;;;;;;5083309;28;20347;-80
2022/08/20 09:13:52;;;;;;;1.42;1.25;;;22.70;99.90;;;;;;5068356;28;20044;-80
2022/08/20 09:16:19;;;;;;;4.25;1.20;;;22.70;99.90;;;;;;5073749;28;20108;-79
2022/08/20 09:18:44;;;;;;;2.50;1.35;;;22.70;99.90;;;;;;5063161;28;20120;-80
2022/08/20 09:21:10;;;;;;;4.38;1.15;;;22.70;99.90;;;;;;5066961;28;20084;-80
2022/08/20 09:23:35;;;;;;;2.20;1.15;;;22.80;99.90;;;;;;5059203;28;20025;-80
2022/08/20 09:26:01;;;;;;;2.88;1.02;;;22.90;99.90;;;;;;5077037;28;20390;-80
2022/08/20 09:28:27;;;;;;;1.50;1.00;;;23.00;99.90;;;;;;5069447;28;20020;-80
2022/08/20 09:30:53;;;;;;;1.63;0.90;;;22.90;99.90;;;;;;5084317;28;20375;-80
2022/08/20 09:33:18;;;;;;;0.95;0.82;;;22.90;99.90;;;;;;5075196;28;20106;-80
2022/08/20 09:35:45;;;;;;;1.30;0.90;;;23.00;99.90;;;;;;5094482;28;20031;-81
2022/08/20 09:38:12;;;;;;;1.50;1.00;;;23.10;99.90;;;;;;5092947;28;20027;-81
2022/08/20 09:40:38;;;;;;;1.17;0.77;;;23.00;99.90;;;;;;5053277;28;20044;-81
2022/08/20 09:43:07;;;;;;;2.08;0.90;;;23.10;99.90;;;;;;5040714;28;20037;-82
2022/08/20 09:45:34;;;;;;;2.25;0.90;;;23.20;99.90;;;;;;5032828;28;20018;-80
2022/08/20 09:47:59;;;;;;;2.17;1.00;;;23.20;99.90;;;;;;5034300;28;20041;-80
2022/08/20 09:50:28;;;;;;;2.53;0.90;;;23.30;99.90;;;;;;5049755;28;20021;-83
2022/08/20 09:52:55;;;;;;;1.08;0.70;;;23.50;99.80;;;;;;5040858;28;20421;-86
2022/08/20 09:55:26;;;;;;;2.78;0.70;;;23.50;99.40;;;;;;5041694;28;20041;-83
2022/08/20 09:57:52;;;;;;;;;;;23.80;99.20;;;;;;5050316;28;20036;-86
2022/08/20 10:00:19;;;;;;;0.73;0.60;;;23.90;98.90;;;;;;5053463;28;20274;-86
2022/08/20 10:02:45;;;;;;;1.75;0.80;;;24.10;98.70;;;;;;5053773;28;20037;-86
2022/08/20 10:05:11;;;;;;;1.17;0.85;;;24.20;98.30;;;;;;5046932;28;20037;-81
2022/08/20 10:07:38;;;;;;;0.93;0.57;;;24.40;97.60;;;;;;5046855;28;20033;-82
2022/08/20 10:10:07;;;;;;;0.80;0.70;;;24.60;96.80;;;;;;5037091;28;20025;-83
2022/08/20 10:12:32;;;;;;;0.50;0.50;;;24.60;96.30;;;;;;5043201;28;20498;-84
2022/08/20 10:14:58;;;;;;;0.80;0.70;;;24.70;96.30;;;;;;5032560;28;20018;-83
2022/08/20 10:17:23;;;;;;;1.02;0.60;;;24.80;96.00;;;;;;5032528;28;20061;-83
2022/08/20 10:19:49;;;;;;;0.98;0.75;;;24.90;95.70;;;;;;5047872;28;20036;-85
2022/08/20 10:22:15;;;;;;;0.98;0.65;;;25.00;95.70;;;;;;5050176;28;20036;-83
2022/08/20 10:24:41;;;;;;;1.48;0.70;;;25.00;95.60;;;;;;5039650;28;20048;-82
2022/08/20 10:27:06;;;;;;;0.73;0.60;;;25.00;95.50;;;;;;5051379;28;20031;-83
2022/08/20 10:29:32;;;;;;;1.98;0.93;;;25.00;95.20;;;;;;5039763;28;20377;-82
2022/08/20 10:32:10;;;;;;;1.42;0.40;;;25.00;94.80;;;;;;5037738;28;20542;-82
2022/08/20 10:34:37;;;;;;;0.75;0.63;;;25.10;94.40;;;;;;5037713;28;20094;-83
2022/08/20 10:37:02;;;;;;;2.35;1.00;;;25.20;94.40;;;;;;5052223;28;20024;-83
2022/08/20 10:39:28;;;;;;;0.40;0.40;;;25.20;93.70;;;;;;5039441;28;20032;-83
2022/08/20 10:41:53;;;;;;;1.15;0.50;;;25.20;93.30;;;;;;5080403;28;20477;-84
2022/08/20 10:44:19;;;;;;;0.52;0.52;;;25.30;93.40;;;;;;5075840;28;20032;-82
2022/08/20 10:46:46;;;;;;;0.90;0.50;;;25.30;93.30;;;;;;5093270;28;20457;-82
2022/08/20 10:49:11;;;;;;;1.95;0.60;;;25.20;93.40;;;;;;5093083;28;20059;-82
2022/08/20 10:51:37;;;;;;;0.60;0.45;;;25.30;93.30;;;;;;5092991;28;20035;-83
2022/08/20 10:54:03;;;;;;;0.55;0.47;;;25.30;93.10;;;;;;5061749;28;20210;-81
2022/08/20 10:56:28;;;;;;;1.38;0.50;;;25.30;92.80;;;;;;5086414;28;20070;-79
2022/08/20 10:58:54;;;;;;;2.20;0.70;;;25.20;93.10;;;;;;5085303;28;20086;-79
2022/08/20 11:01:19;;;;;;;0.63;0.57;;;25.20;93.10;;;;;;5062268;28;20050;-79
2022/08/20 11:03:45;;;;;;;1.15;0.63;;;25.10;93.10;;;;;;5083898;28;20386;-77
2022/08/20 11:06:11;;;;;;;1.20;0.60;;;25.10;92.90;;;;;;5056961;28;20484;-79
2022/08/20 11:08:36;;;;;;;1.38;0.43;;;25.10;92.70;;;;;;5086787;28;20019;-79
2022/08/20 11:11:03;;;;;;;0.63;0.63;;;25.10;92.70;;;;;;5054283;28;20040;-79
2022/08/20 11:13:29;;;;;;;0.50;0.40;;;25.10;92.50;;;;;;5084913;28;20040;-79
2022/08/20 11:15:55;;;;;;;0.35;0.32;;;25.10;91.50;;;;;;5060057;28;20381;-79
2022/08/20 11:18:20;;;;;;;1.38;0.50;;;25.10;91.50;;;;;;5059861;28;20445;-79
2022/08/20 11:20:46;;;;;;;1.75;0.60;;;25.10;91.90;;;;;;5066903;28;20033;-79
2022/08/20 11:23:11;;;;;;;1.15;0.50;;;25.10;91.80;;;;;;5055838;28;20046;-79
2022/08/20 11:25:37;;;;;;;1.88;0.50;;;25.30;91.60;;;;;;5055740;28;20111;-79
2022/08/20 11:28:05;;;;;;;1.38;0.75;;;25.40;91.60;;;;;;5059093;28;20275;-79
2022/08/20 11:30:33;;;;;;;1.25;0.80;;;25.50;91.70;;;;;;5077714;28;20016;-79
2022/08/20 11:33:00;;;;;;;2.85;0.50;;;25.60;91.20;;;;;;5059360;28;20493;-79
2022/08/20 11:35:29;;;;;;;0.60;0.40;;;25.40;90.90;;;;;;5052843;28;20033;-80
2022/08/20 11:37:57;;;;;;;0.45;0.45;;;25.30;91.00;;;;;;5058465;28;20021;-81
2022/08/20 11:40:24;;;;;;;0.47;0.47;;;25.30;91.10;;;;;;5061607;28;20032;-80
2022/08/20 11:42:50;;;;;;;0.77;0.50;;;25.40;90.80;;;;;;5063719;28;20047;-80
2022/08/20 11:45:16;;;;;;;1.52;0.80;;;25.60;90.40;;;;;;5066876;28;20028;-79
2022/08/20 11:47:42;;;;;;;1.00;0.40;;;25.80;90.40;;;;;;5068430;28;20474;-79
2022/08/20 11:50:14;;;;;;;0.30;0.30;;;25.80;89.90;;;;;;5076273;28;20028;-82
2022/08/20 11:52:40;;;;;;;0.38;0.30;;;25.90;89.30;;;;;;5062412;28;20033;-80
2022/08/20 11:55:09;;;;;;;71.55;44.28;;;26.00;89.00;;;;;;5057399;28;20035;-79
2022/08/20 11:57:36;;;;;;;6.60;4.70;;;26.10;88.60;;;;;;5076151;28;20021;-78
2022/08/20 12:00:09;;;;;;;1.63;1.40;;;26.00;87.70;;;;;;5074943;28;20028;-82
2022/08/20 12:02:35;;;;;;;0.80;0.63;;;26.00;85.60;;;;;;5092301;28;20020;-83
2022/08/20 12:05:02;;;;;;;4.22;0.32;;;26.00;85.50;;;;;;5087360;28;20481;-84
2022/08/20 12:07:27;;;;;;;0.35;0.30;;;26.30;84.40;;;;;;5071436;28;20028;-83
2022/08/20 12:09:53;;;;;;;0.80;0.30;;;26.30;84.20;;;;;;5078883;28;20038;-83
2022/08/20 12:12:22;;;;;;;0.20;0.20;;;26.20;84.90;;;;;;5075325;28;20031;-83
2022/08/20 12:14:48;;;;;;;1.10;0.35;;;26.20;85.60;;;;;;5083071;28;20024;-83
2022/08/20 12:17:18;;;;;;;1.15;0.20;;;26.20;84.60;;;;;;5067903;28;20047;-83
2022/08/20 12:19:44;;;;;;;0.30;0.20;;;26.20;84.50;;;;;;5091545;28;20054;-83
2022/08/20 12:22:10;;;;;;;0.40;0.30;;;26.20;85.00;;;;;;5079184;28;20032;-82
2022/08/20 12:24:36;;;;;;;0.65;0.20;;;26.20;85.80;;;;;;5073429;28;20074;-82
2022/08/20 12:27:18;;;;;;;0.30;0.30;;;26.40;84.60;;;;;;5066963;28;20025;-81
2022/08/20 12:29:47;;;;;;;1.38;0.30;;;26.50;84.40;;;;;;5063644;28;20032;-82
2022/08/20 12:32:13;;;;;;;0.28;0.20;;;26.60;83.50;;;;;;5076875;28;20028;-82
2022/08/20 12:34:41;;;;;;;1.15;0.30;;;26.50;84.00;;;;;;5072492;28;20036;-84
2022/08/20 12:37:11;;;;;;;0.73;0.22;;;26.50;83.50;;;;;;5067164;28;20115;-83
2022/08/20 12:39:38;;;;;;;0.25;0.25;;;26.70;80.40;;;;;;5063124;28;20032;-84
2022/08/20 12:42:04;;;;;;;1.63;0.20;;;26.90;79.20;;;;;;5074150;28;20063;-83
2022/08/20 12:44:31;;;;;;;0.98;0.35;;;27.10;79.00;;;;;;5063047;28;20035;-83
2022/08/20 12:47:20;;;;;;;0.40;0.30;;;27.10;79.30;;;;;;5069586;28;20025;-83
2022/08/20 12:49:49;;;;;;;0.20;0.20;;;27.30;77.90;;;;;;5058093;28;20031;-82
2022/08/20 12:52:16;;;;;;;0.35;0.22;;;27.60;78.60;;;;;;5074230;28;20028;-82
2022/08/20 12:54:42;;;;;;;0.25;0.20;;;27.90;76.40;;;;;;5064155;28;20108;-82
2022/08/20 12:57:14;;;;;;;0.77;0.17;;;28.00;75.80;;;;;;5084016;28;20075;-83